sensor_id;sensor_type;location;lat;lon;timestamp;P1;durP1;ratioP1;P2;durP2;ratioP2
54171;SDS011;40076;52.354;4.970;2024-02-15T00:00:36;25.70;;;6.63;;
54171;SDS011;40076;52.354;4.970;2024-02-15T00:03:02;36.50;;;7.43;;
54171;SDS011;40076;52.354;4.970;2024-02-15T00:05:29;33.67;;;6.93;;
54171;SDS011;40076;52.354;4.970;2024-02-15T00:07:54;31.42;;;7.15;;
54171;SDS011;40076;52.354;4.970;2024-02-15T00:10:19;31.67;;;6.05;;
54171;SDS011;40076;52.354;4.970;2024-02-15T00:12:48;27.15;;;6.28;;
54171;SDS011;40076;52.354;4.970;2024-02-15T00:15:15;28.10;;;7.50;;
54171;SDS011;40076;52.354;4.970;2024-02-15T00:17:40;33.28;;;7.65;;
54171;SDS011;40076;52.354;4.970;2024-02-15T00:20:06;26.88;;;7.50;;
54171;SDS011;40076;52.354;4.970;2024-02-15T00:22:35;38.72;;;9.07;;
54171;SDS011;40076;52.354;4.970;2024-02-15T00:25:01;28.92;;;8.38;;
54171;SDS011;40076;52.354;4.970;2024-02-15T00:27:27;25.33;;;9.77;;
54171;SDS011;40076;52.354;4.970;2024-02-15T00:29:53;28.95;;;9.40;;
54171;SDS011;40076;52.354;4.970;2024-02-15T00:32:18;30.70;;;8.65;;
54171;SDS011;40076;52.354;4.970;2024-02-15T00:34:44;36.97;;;9.32;;
54171;SDS011;40076;52.354;4.970;2024-02-15T00:37:09;27.48;;;9.30;;
54171;SDS011;40076;52.354;4.970;2024-02-15T00:39:34;34.85;;;10.70;;
54171;SDS011;40076;52.354;4.970;2024-02-15T00:42:00;33.25;;;10.85;;
54171;SDS011;40076;52.354;4.970;2024-02-15T00:44:26;29.45;;;9.65;;
54171;SDS011;40076;52.354;4.970;2024-02-15T00:46:52;32.45;;;9.50;;
54171;SDS011;40076;52.354;4.970;2024-02-15T00:49:17;30.40;;;10.10;;
54171;SDS011;40076;52.354;4.970;2024-02-15T00:51:45;22.52;;;10.05;;
54171;SDS011;40076;52.354;4.970;2024-02-15T00:54:11;35.72;;;11.48;;
54171;SDS011;40076;52.354;4.970;2024-02-15T00:56:36;29.45;;;10.00;;
54171;SDS011;40076;52.354;4.970;2024-02-15T00:59:01;29.65;;;9.85;;
54171;SDS011;40076;52.354;4.970;2024-02-15T01:01:28;29.20;;;9.80;;
54171;SDS011;40076;52.354;4.970;2024-02-15T01:03:54;34.05;;;10.10;;
54171;SDS011;40076;52.354;4.970;2024-02-15T01:06:19;30.48;;;9.77;;
54171;SDS011;40076;52.354;4.970;2024-02-15T01:08:44;28.98;;;10.30;;
54171;SDS011;40076;52.354;4.970;2024-02-15T01:11:12;28.45;;;8.77;;
54171;SDS011;40076;52.354;4.970;2024-02-15T01:13:38;36.13;;;10.25;;
54171;SDS011;40076;52.354;4.970;2024-02-15T01:16:04;27.92;;;9.60;;
54171;SDS011;40076;52.354;4.970;2024-02-15T01:18:30;27.02;;;10.68;;
54171;SDS011;40076;52.354;4.970;2024-02-15T01:20:56;26.80;;;10.27;;
54171;SDS011;40076;52.354;4.970;2024-02-15T01:23:22;26.85;;;10.82;;
54171;SDS011;40076;52.354;4.970;2024-02-15T01:25:50;26.42;;;10.85;;
54171;SDS011;40076;52.354;4.970;2024-02-15T01:28:16;22.75;;;9.75;;
54171;SDS011;40076;52.354;4.970;2024-02-15T01:30:42;28.92;;;11.18;;
54171;SDS011;40076;52.354;4.970;2024-02-15T01:33:08;24.90;;;10.77;;
54171;SDS011;40076;52.354;4.970;2024-02-15T01:35:35;27.95;;;11.00;;
54171;SDS011;40076;52.354;4.970;2024-02-15T01:38:01;26.08;;;10.00;;
54171;SDS011;40076;52.354;4.970;2024-02-15T01:40:29;21.88;;;9.93;;
54171;SDS011;40076;52.354;4.970;2024-02-15T01:42:55;22.67;;;10.55;;
54171;SDS011;40076;52.354;4.970;2024-02-15T01:45:20;25.75;;;10.30;;
54171;SDS011;40076;52.354;4.970;2024-02-15T01:47:47;27.60;;;10.63;;
54171;SDS011;40076;52.354;4.970;2024-02-15T01:50:14;15.43;;;9.18;;
54171;SDS011;40076;52.354;4.970;2024-02-15T01:52:42;19.13;;;9.63;;
54171;SDS011;40076;52.354;4.970;2024-02-15T01:55:12;27.13;;;9.70;;
54171;SDS011;40076;52.354;4.970;2024-02-15T01:57:43;22.85;;;9.40;;
54171;SDS011;40076;52.354;4.970;2024-02-15T02:00:18;25.48;;;10.20;;
54171;SDS011;40076;52.354;4.970;2024-02-15T02:02:44;18.25;;;9.80;;
54171;SDS011;40076;52.354;4.970;2024-02-15T02:05:11;20.05;;;9.35;;
54171;SDS011;40076;52.354;4.970;2024-02-15T02:07:39;21.92;;;9.98;;
54171;SDS011;40076;52.354;4.970;2024-02-15T02:10:05;23.15;;;9.77;;
54171;SDS011;40076;52.354;4.970;2024-02-15T02:12:32;21.63;;;10.52;;
54171;SDS011;40076;52.354;4.970;2024-02-15T02:14:58;24.58;;;10.52;;
54171;SDS011;40076;52.354;4.970;2024-02-15T02:17:24;20.52;;;10.90;;
54171;SDS011;40076;52.354;4.970;2024-02-15T02:19:49;22.45;;;11.48;;
54171;SDS011;40076;52.354;4.970;2024-02-15T02:22:15;23.27;;;11.20;;
54171;SDS011;40076;52.354;4.970;2024-02-15T02:25:02;20.83;;;11.90;;
54171;SDS011;40076;52.354;4.970;2024-02-15T02:27:32;21.88;;;11.43;;
54171;SDS011;40076;52.354;4.970;2024-02-15T02:29:58;20.85;;;11.70;;
54171;SDS011;40076;52.354;4.970;2024-02-15T02:32:31;20.10;;;11.70;;
54171;SDS011;40076;52.354;4.970;2024-02-15T02:34:58;24.25;;;11.45;;
54171;SDS011;40076;52.354;4.970;2024-02-15T02:37:24;17.48;;;11.75;;
54171;SDS011;40076;52.354;4.970;2024-02-15T02:39:50;21.77;;;11.65;;
54171;SDS011;40076;52.354;4.970;2024-02-15T02:42:15;23.23;;;11.75;;
54171;SDS011;40076;52.354;4.970;2024-02-15T02:44:41;21.23;;;11.38;;
54171;SDS011;40076;52.354;4.970;2024-02-15T02:47:06;22.52;;;10.93;;
54171;SDS011;40076;52.354;4.970;2024-02-15T02:49:32;18.35;;;11.20;;
54171;SDS011;40076;52.354;4.970;2024-02-15T02:52:00;20.58;;;11.35;;
54171;SDS011;40076;52.354;4.970;2024-02-15T02:54:25;25.52;;;11.88;;
54171;SDS011;40076;52.354;4.970;2024-02-15T02:56:50;22.30;;;11.90;;
54171;SDS011;40076;52.354;4.970;2024-02-15T02:59:15;26.23;;;13.35;;
54171;SDS011;40076;52.354;4.970;2024-02-15T03:01:41;23.30;;;14.27;;
54171;SDS011;40076;52.354;4.970;2024-02-15T03:04:07;26.73;;;14.18;;
54171;SDS011;40076;52.354;4.970;2024-02-15T03:06:33;25.95;;;13.23;;
54171;SDS011;40076;52.354;4.970;2024-02-15T03:08:58;25.60;;;13.45;;
54171;SDS011;40076;52.354;4.970;2024-02-15T03:11:24;25.58;;;14.45;;
54171;SDS011;40076;52.354;4.970;2024-02-15T03:13:49;26.20;;;14.23;;
54171;SDS011;40076;52.354;4.970;2024-02-15T03:16:14;30.50;;;14.40;;
54171;SDS011;40076;52.354;4.970;2024-02-15T03:18:41;27.13;;;15.38;;
54171;SDS011;40076;52.354;4.970;2024-02-15T03:21:08;24.98;;;14.20;;
54171;SDS011;40076;52.354;4.970;2024-02-15T03:23:35;26.73;;;14.52;;
54171;SDS011;40076;52.354;4.970;2024-02-15T03:26:02;25.13;;;14.75;;
54171;SDS011;40076;52.354;4.970;2024-02-15T03:28:28;23.60;;;15.15;;
54171;SDS011;40076;52.354;4.970;2024-02-15T03:30:54;29.70;;;15.63;;
54171;SDS011;40076;52.354;4.970;2024-02-15T03:33:20;27.33;;;15.50;;
54171;SDS011;40076;52.354;4.970;2024-02-15T03:35:51;27.00;;;15.45;;
54171;SDS011;40076;52.354;4.970;2024-02-15T03:38:17;30.00;;;15.20;;
54171;SDS011;40076;52.354;4.970;2024-02-15T03:40:42;29.13;;;16.00;;
54171;SDS011;40076;52.354;4.970;2024-02-15T03:43:08;29.27;;;15.88;;
54171;SDS011;40076;52.354;4.970;2024-02-15T03:45:34;31.77;;;16.45;;
54171;SDS011;40076;52.354;4.970;2024-02-15T03:47:59;32.05;;;15.60;;
54171;SDS011;40076;52.354;4.970;2024-02-15T03:50:25;29.77;;;16.48;;
54171;SDS011;40076;52.354;4.970;2024-02-15T03:52:50;31.08;;;16.42;;
54171;SDS011;40076;52.354;4.970;2024-02-15T03:55:16;26.65;;;14.95;;
54171;SDS011;40076;52.354;4.970;2024-02-15T03:57:41;35.42;;;16.95;;
54171;SDS011;40076;52.354;4.970;2024-02-15T04:00:08;29.48;;;16.58;;
54171;SDS011;40076;52.354;4.970;2024-02-15T04:02:36;28.52;;;16.27;;
54171;SDS011;40076;52.354;4.970;2024-02-15T04:05:01;30.92;;;16.52;;
54171;SDS011;40076;52.354;4.970;2024-02-15T04:07:29;30.13;;;16.70;;
54171;SDS011;40076;52.354;4.970;2024-02-15T04:09:55;35.35;;;17.95;;
54171;SDS011;40076;52.354;4.970;2024-02-15T04:12:21;32.17;;;17.90;;
54171;SDS011;40076;52.354;4.970;2024-02-15T04:14:47;28.05;;;17.50;;
54171;SDS011;40076;52.354;4.970;2024-02-15T04:17:12;27.27;;;16.50;;
54171;SDS011;40076;52.354;4.970;2024-02-15T04:19:47;33.13;;;17.80;;
54171;SDS011;40076;52.354;4.970;2024-02-15T04:22:15;31.85;;;17.17;;
54171;SDS011;40076;52.354;4.970;2024-02-15T04:24:41;36.05;;;19.23;;
54171;SDS011;40076;52.354;4.970;2024-02-15T04:27:07;29.13;;;17.35;;
54171;SDS011;40076;52.354;4.970;2024-02-15T04:29:45;32.22;;;17.67;;
54171;SDS011;40076;52.354;4.970;2024-02-15T04:32:11;30.02;;;17.52;;
54171;SDS011;40076;52.354;4.970;2024-02-15T04:34:38;37.00;;;17.90;;
54171;SDS011;40076;52.354;4.970;2024-02-15T04:37:05;32.55;;;17.83;;
54171;SDS011;40076;52.354;4.970;2024-02-15T04:39:34;32.90;;;17.15;;
54171;SDS011;40076;52.354;4.970;2024-02-15T04:42:03;37.17;;;19.00;;
54171;SDS011;40076;52.354;4.970;2024-02-15T04:44:31;31.67;;;17.77;;
54171;SDS011;40076;52.354;4.970;2024-02-15T04:47:00;29.58;;;18.45;;
54171;SDS011;40076;52.354;4.970;2024-02-15T04:49:27;33.80;;;19.67;;
54171;SDS011;40076;52.354;4.970;2024-02-15T04:51:54;28.00;;;19.77;;
54171;SDS011;40076;52.354;4.970;2024-02-15T04:54:22;35.90;;;19.50;;
54171;SDS011;40076;52.354;4.970;2024-02-15T04:56:47;34.20;;;19.02;;
54171;SDS011;40076;52.354;4.970;2024-02-15T04:59:12;31.08;;;19.85;;
54171;SDS011;40076;52.354;4.970;2024-02-15T05:01:40;32.05;;;19.13;;
54171;SDS011;40076;52.354;4.970;2024-02-15T05:04:08;38.42;;;20.02;;
54171;SDS011;40076;52.354;4.970;2024-02-15T05:06:34;33.67;;;20.25;;
54171;SDS011;40076;52.354;4.970;2024-02-15T05:09:01;34.45;;;20.60;;
54171;SDS011;40076;52.354;4.970;2024-02-15T05:11:32;30.17;;;19.38;;
54171;SDS011;40076;52.354;4.970;2024-02-15T05:14:00;34.58;;;20.02;;
54171;SDS011;40076;52.354;4.970;2024-02-15T05:16:26;33.95;;;19.83;;
54171;SDS011;40076;52.354;4.970;2024-02-15T05:18:51;31.77;;;20.92;;
54171;SDS011;40076;52.354;4.970;2024-02-15T05:21:18;32.10;;;19.65;;
54171;SDS011;40076;52.354;4.970;2024-02-15T05:23:44;30.77;;;19.52;;
54171;SDS011;40076;52.354;4.970;2024-02-15T05:26:10;31.92;;;20.35;;
54171;SDS011;40076;52.354;4.970;2024-02-15T05:28:37;30.40;;;18.92;;
54171;SDS011;40076;52.354;4.970;2024-02-15T05:31:12;33.83;;;19.27;;
54171;SDS011;40076;52.354;4.970;2024-02-15T05:33:50;29.63;;;20.35;;
54171;SDS011;40076;52.354;4.970;2024-02-15T05:36:17;31.75;;;20.25;;
54171;SDS011;40076;52.354;4.970;2024-02-15T05:38:46;28.40;;;19.92;;
54171;SDS011;40076;52.354;4.970;2024-02-15T05:41:12;30.65;;;20.83;;
54171;SDS011;40076;52.354;4.970;2024-02-15T05:43:41;33.15;;;21.00;;
54171;SDS011;40076;52.354;4.970;2024-02-15T05:46:08;31.42;;;20.63;;
54171;SDS011;40076;52.354;4.970;2024-02-15T05:48:34;31.63;;;22.27;;
54171;SDS011;40076;52.354;4.970;2024-02-15T05:51:01;33.88;;;22.65;;
54171;SDS011;40076;52.354;4.970;2024-02-15T05:53:33;36.58;;;22.10;;
54171;SDS011;40076;52.354;4.970;2024-02-15T05:56:03;32.00;;;22.38;;
54171;SDS011;40076;52.354;4.970;2024-02-15T05:58:32;30.80;;;22.30;;
54171;SDS011;40076;52.354;4.970;2024-02-15T06:01:01;33.88;;;22.98;;
54171;SDS011;40076;52.354;4.970;2024-02-15T06:03:30;34.42;;;22.85;;
54171;SDS011;40076;52.354;4.970;2024-02-15T06:05:59;36.45;;;23.52;;
54171;SDS011;40076;52.354;4.970;2024-02-15T06:08:29;39.10;;;25.75;;
54171;SDS011;40076;52.354;4.970;2024-02-15T06:10:55;34.72;;;23.75;;
54171;SDS011;40076;52.354;4.970;2024-02-15T06:13:21;37.50;;;25.25;;
54171;SDS011;40076;52.354;4.970;2024-02-15T06:15:47;36.90;;;24.08;;
54171;SDS011;40076;52.354;4.970;2024-02-15T06:18:17;39.22;;;24.88;;
54171;SDS011;40076;52.354;4.970;2024-02-15T06:20:53;40.55;;;24.98;;
54171;SDS011;40076;52.354;4.970;2024-02-15T06:23:27;38.92;;;25.27;;
54171;SDS011;40076;52.354;4.970;2024-02-15T06:25:54;37.13;;;25.48;;
54171;SDS011;40076;52.354;4.970;2024-02-15T06:28:25;39.95;;;26.52;;
54171;SDS011;40076;52.354;4.970;2024-02-15T06:31:10;40.00;;;26.95;;
54171;SDS011;40076;52.354;4.970;2024-02-15T06:33:55;44.78;;;27.75;;
54171;SDS011;40076;52.354;4.970;2024-02-15T06:36:47;41.80;;;29.27;;
54171;SDS011;40076;52.354;4.970;2024-02-15T06:39:32;42.53;;;29.88;;
54171;SDS011;40076;52.354;4.970;2024-02-15T06:42:13;45.28;;;29.02;;
54171;SDS011;40076;52.354;4.970;2024-02-15T06:44:42;43.58;;;29.75;;
54171;SDS011;40076;52.354;4.970;2024-02-15T06:47:08;44.53;;;31.17;;
54171;SDS011;40076;52.354;4.970;2024-02-15T06:49:36;44.15;;;30.00;;
54171;SDS011;40076;52.354;4.970;2024-02-15T06:52:05;42.88;;;28.80;;
54171;SDS011;40076;52.354;4.970;2024-02-15T06:54:34;45.20;;;29.05;;
54171;SDS011;40076;52.354;4.970;2024-02-15T06:57:03;42.28;;;28.95;;
54171;SDS011;40076;52.354;4.970;2024-02-15T06:59:29;42.30;;;29.90;;
54171;SDS011;40076;52.354;4.970;2024-02-15T07:01:56;42.78;;;28.95;;
54171;SDS011;40076;52.354;4.970;2024-02-15T07:04:22;37.67;;;27.00;;
54171;SDS011;40076;52.354;4.970;2024-02-15T07:06:50;38.25;;;26.67;;
54171;SDS011;40076;52.354;4.970;2024-02-15T07:09:17;43.42;;;27.08;;
54171;SDS011;40076;52.354;4.970;2024-02-15T07:11:45;41.17;;;27.70;;
54171;SDS011;40076;52.354;4.970;2024-02-15T07:14:11;37.65;;;26.60;;
54171;SDS011;40076;52.354;4.970;2024-02-15T07:16:46;35.05;;;24.02;;
54171;SDS011;40076;52.354;4.970;2024-02-15T07:19:12;33.58;;;24.95;;
54171;SDS011;40076;52.354;4.970;2024-02-15T07:21:41;33.63;;;24.13;;
54171;SDS011;40076;52.354;4.970;2024-02-15T07:24:07;35.55;;;22.67;;
54171;SDS011;40076;52.354;4.970;2024-02-15T07:26:32;31.17;;;22.10;;
54171;SDS011;40076;52.354;4.970;2024-02-15T07:29:00;29.17;;;19.67;;
54171;SDS011;40076;52.354;4.970;2024-02-15T07:31:29;28.70;;;20.30;;
54171;SDS011;40076;52.354;4.970;2024-02-15T07:33:54;28.20;;;20.25;;
54171;SDS011;40076;52.354;4.970;2024-02-15T07:36:20;26.50;;;19.38;;
54171;SDS011;40076;52.354;4.970;2024-02-15T07:38:52;24.77;;;19.15;;
54171;SDS011;40076;52.354;4.970;2024-02-15T07:41:19;28.27;;;19.65;;
54171;SDS011;40076;52.354;4.970;2024-02-15T07:43:50;26.73;;;18.55;;
54171;SDS011;40076;52.354;4.970;2024-02-15T07:46:20;23.92;;;18.42;;
54171;SDS011;40076;52.354;4.970;2024-02-15T07:48:49;24.20;;;17.88;;
54171;SDS011;40076;52.354;4.970;2024-02-15T07:51:16;23.90;;;17.58;;
54171;SDS011;40076;52.354;4.970;2024-02-15T07:53:43;24.45;;;17.90;;
54171;SDS011;40076;52.354;4.970;2024-02-15T07:56:12;24.38;;;17.13;;
54171;SDS011;40076;52.354;4.970;2024-02-15T07:58:47;25.25;;;18.73;;
54171;SDS011;40076;52.354;4.970;2024-02-15T08:01:13;31.33;;;19.30;;
54171;SDS011;40076;52.354;4.970;2024-02-15T08:03:40;28.75;;;18.48;;
54171;SDS011;40076;52.354;4.970;2024-02-15T08:06:11;24.48;;;17.50;;
54171;SDS011;40076;52.354;4.970;2024-02-15T08:08:38;26.85;;;18.27;;
54171;SDS011;40076;52.354;4.970;2024-02-15T08:11:06;24.52;;;19.05;;
54171;SDS011;40076;52.354;4.970;2024-02-15T08:13:35;26.13;;;19.15;;
54171;SDS011;40076;52.354;4.970;2024-02-15T08:16:03;23.45;;;17.45;;
54171;SDS011;40076;52.354;4.970;2024-02-15T08:18:30;22.45;;;16.98;;
54171;SDS011;40076;52.354;4.970;2024-02-15T08:20:56;24.95;;;17.08;;
54171;SDS011;40076;52.354;4.970;2024-02-15T08:23:22;21.70;;;15.80;;
54171;SDS011;40076;52.354;4.970;2024-02-15T08:25:47;23.40;;;15.10;;
54171;SDS011;40076;52.354;4.970;2024-02-15T08:28:13;22.17;;;14.68;;
54171;SDS011;40076;52.354;4.970;2024-02-15T08:30:38;18.42;;;13.82;;
54171;SDS011;40076;52.354;4.970;2024-02-15T08:33:03;20.25;;;14.30;;
54171;SDS011;40076;52.354;4.970;2024-02-15T08:35:29;19.30;;;13.82;;
54171;SDS011;40076;52.354;4.970;2024-02-15T08:37:54;20.92;;;13.63;;
54171;SDS011;40076;52.354;4.970;2024-02-15T08:40:21;15.98;;;12.45;;
54171;SDS011;40076;52.354;4.970;2024-02-15T08:42:50;18.67;;;13.23;;
54171;SDS011;40076;52.354;4.970;2024-02-15T08:45:15;17.27;;;12.82;;
54171;SDS011;40076;52.354;4.970;2024-02-15T08:47:41;17.38;;;12.80;;
54171;SDS011;40076;52.354;4.970;2024-02-15T08:50:08;16.33;;;13.15;;
54171;SDS011;40076;52.354;4.970;2024-02-15T08:52:35;16.50;;;12.93;;
54171;SDS011;40076;52.354;4.970;2024-02-15T08:55:05;17.60;;;13.27;;
54171;SDS011;40076;52.354;4.970;2024-02-15T08:57:32;20.48;;;14.40;;
54171;SDS011;40076;52.354;4.970;2024-02-15T08:59:57;20.95;;;15.32;;
54171;SDS011;40076;52.354;4.970;2024-02-15T09:02:23;18.15;;;14.48;;
54171;SDS011;40076;52.354;4.970;2024-02-15T09:04:48;20.48;;;15.50;;
54171;SDS011;40076;52.354;4.970;2024-02-15T09:07:14;22.52;;;16.98;;
54171;SDS011;40076;52.354;4.970;2024-02-15T09:09:39;22.95;;;16.83;;
54171;SDS011;40076;52.354;4.970;2024-02-15T09:12:05;24.45;;;17.10;;
54171;SDS011;40076;52.354;4.970;2024-02-15T09:14:31;24.08;;;17.65;;
54171;SDS011;40076;52.354;4.970;2024-02-15T09:16:58;26.45;;;18.45;;
54171;SDS011;40076;52.354;4.970;2024-02-15T09:19:24;22.73;;;17.98;;
54171;SDS011;40076;52.354;4.970;2024-02-15T09:21:49;25.92;;;19.55;;
54171;SDS011;40076;52.354;4.970;2024-02-15T09:24:15;25.52;;;18.35;;
54171;SDS011;40076;52.354;4.970;2024-02-15T09:26:42;24.48;;;18.83;;
54171;SDS011;40076;52.354;4.970;2024-02-15T09:29:09;24.77;;;19.00;;
54171;SDS011;40076;52.354;4.970;2024-02-15T09:31:35;24.70;;;18.10;;
54171;SDS011;40076;52.354;4.970;2024-02-15T09:34:01;31.65;;;19.85;;
54171;SDS011;40076;52.354;4.970;2024-02-15T09:36:33;25.02;;;17.85;;
54171;SDS011;40076;52.354;4.970;2024-02-15T09:38:59;24.92;;;17.70;;
54171;SDS011;40076;52.354;4.970;2024-02-15T09:41:24;23.95;;;17.45;;
54171;SDS011;40076;52.354;4.970;2024-02-15T09:43:50;27.25;;;18.25;;
54171;SDS011;40076;52.354;4.970;2024-02-15T09:46:17;24.33;;;18.83;;
54171;SDS011;40076;52.354;4.970;2024-02-15T09:48:49;25.45;;;18.10;;
54171;SDS011;40076;52.354;4.970;2024-02-15T09:51:23;26.85;;;19.30;;
54171;SDS011;40076;52.354;4.970;2024-02-15T09:53:50;27.05;;;18.85;;
54171;SDS011;40076;52.354;4.970;2024-02-15T09:56:16;29.98;;;19.98;;
54171;SDS011;40076;52.354;4.970;2024-02-15T09:58:43;30.60;;;20.30;;
54171;SDS011;40076;52.354;4.970;2024-02-15T10:01:09;31.55;;;21.00;;
54171;SDS011;40076;52.354;4.970;2024-02-15T10:03:38;32.85;;;21.25;;
54171;SDS011;40076;52.354;4.970;2024-02-15T10:06:07;28.13;;;20.90;;
54171;SDS011;40076;52.354;4.970;2024-02-15T10:08:33;30.55;;;20.20;;
54171;SDS011;40076;52.354;4.970;2024-02-15T10:11:05;31.52;;;20.80;;
54171;SDS011;40076;52.354;4.970;2024-02-15T10:13:35;27.75;;;19.55;;
54171;SDS011;40076;52.354;4.970;2024-02-15T10:16:13;31.80;;;20.63;;
54171;SDS011;40076;52.354;4.970;2024-02-15T10:18:40;35.10;;;19.95;;
54171;SDS011;40076;52.354;4.970;2024-02-15T10:21:06;27.98;;;18.77;;
54171;SDS011;40076;52.354;4.970;2024-02-15T10:23:31;30.75;;;19.85;;
54171;SDS011;40076;52.354;4.970;2024-02-15T10:25:57;31.23;;;19.15;;
54171;SDS011;40076;52.354;4.970;2024-02-15T10:28:23;28.75;;;20.25;;
54171;SDS011;40076;52.354;4.970;2024-02-15T10:30:49;28.15;;;18.45;;
54171;SDS011;40076;52.354;4.970;2024-02-15T10:33:28;34.67;;;20.08;;
54171;SDS011;40076;52.354;4.970;2024-02-15T10:36:07;33.83;;;19.50;;
54171;SDS011;40076;52.354;4.970;2024-02-15T10:38:33;27.15;;;18.33;;
54171;SDS011;40076;52.354;4.970;2024-02-15T10:41:06;29.00;;;19.10;;
54171;SDS011;40076;52.354;4.970;2024-02-15T10:43:33;32.80;;;19.27;;
54171;SDS011;40076;52.354;4.970;2024-02-15T10:45:59;30.00;;;18.42;;
54171;SDS011;40076;52.354;4.970;2024-02-15T10:48:29;30.27;;;18.60;;
54171;SDS011;40076;52.354;4.970;2024-02-15T10:50:59;34.35;;;19.27;;
54171;SDS011;40076;52.354;4.970;2024-02-15T10:53:27;30.50;;;19.38;;
54171;SDS011;40076;52.354;4.970;2024-02-15T10:55:57;29.92;;;18.15;;
54171;SDS011;40076;52.354;4.970;2024-02-15T10:58:38;31.90;;;18.58;;
54171;SDS011;40076;52.354;4.970;2024-02-15T11:01:15;29.10;;;18.27;;
54171;SDS011;40076;52.354;4.970;2024-02-15T11:03:55;27.92;;;17.55;;
54171;SDS011;40076;52.354;4.970;2024-02-15T11:06:26;35.97;;;17.17;;
54171;SDS011;40076;52.354;4.970;2024-02-15T11:08:52;31.00;;;18.10;;
54171;SDS011;40076;52.354;4.970;2024-02-15T11:11:18;26.77;;;17.95;;
54171;SDS011;40076;52.354;4.970;2024-02-15T11:13:45;32.50;;;18.10;;
54171;SDS011;40076;52.354;4.970;2024-02-15T11:19:04;25.75;;;16.38;;
54171;SDS011;40076;52.354;4.970;2024-02-15T11:24:28;26.77;;;15.77;;
54171;SDS011;40076;52.354;4.970;2024-02-15T11:26:58;30.08;;;15.82;;
54171;SDS011;40076;52.354;4.970;2024-02-15T11:35:14;25.30;;;14.27;;
54171;SDS011;40076;52.354;4.970;2024-02-15T11:40:24;26.70;;;14.68;;
54171;SDS011;40076;52.354;4.970;2024-02-15T11:42:52;23.75;;;14.43;;
54171;SDS011;40076;52.354;4.970;2024-02-15T11:45:19;25.63;;;14.15;;
54171;SDS011;40076;52.354;4.970;2024-02-15T11:47:52;26.98;;;14.15;;
54171;SDS011;40076;52.354;4.970;2024-02-15T11:50:19;27.23;;;14.90;;
54171;SDS011;40076;52.354;4.970;2024-02-15T11:52:46;29.05;;;13.48;;
54171;SDS011;40076;52.354;4.970;2024-02-15T11:55:17;25.02;;;14.27;;
54171;SDS011;40076;52.354;4.970;2024-02-15T11:57:53;28.60;;;14.65;;
54171;SDS011;40076;52.354;4.970;2024-02-15T12:00:35;24.63;;;15.05;;
54171;SDS011;40076;52.354;4.970;2024-02-15T12:03:20;23.67;;;14.70;;
54171;SDS011;40076;52.354;4.970;2024-02-15T12:06:05;26.52;;;15.18;;
54171;SDS011;40076;52.354;4.970;2024-02-15T12:09:05;26.30;;;15.88;;
54171;SDS011;40076;52.354;4.970;2024-02-15T12:12:01;22.45;;;12.95;;
54171;SDS011;40076;52.354;4.970;2024-02-15T12:14:45;22.90;;;13.05;;
54171;SDS011;40076;52.354;4.970;2024-02-15T12:17:29;18.10;;;13.23;;
54171;SDS011;40076;52.354;4.970;2024-02-15T12:20:16;20.13;;;13.15;;
54171;SDS011;40076;52.354;4.970;2024-02-15T12:22:49;29.27;;;13.80;;
54171;SDS011;40076;52.354;4.970;2024-02-15T12:25:17;23.80;;;13.48;;
54171;SDS011;40076;52.354;4.970;2024-02-15T12:27:55;20.15;;;13.52;;
54171;SDS011;40076;52.354;4.970;2024-02-15T12:30:23;21.75;;;13.65;;
54171;SDS011;40076;52.354;4.970;2024-02-15T12:33:08;20.42;;;12.63;;
54171;SDS011;40076;52.354;4.970;2024-02-15T12:35:35;24.23;;;13.43;;
54171;SDS011;40076;52.354;4.970;2024-02-15T12:38:01;19.73;;;12.70;;
54171;SDS011;40076;52.354;4.970;2024-02-15T12:40:33;18.40;;;12.70;;
54171;SDS011;40076;52.354;4.970;2024-02-15T12:43:05;20.88;;;14.43;;
54171;SDS011;40076;52.354;4.970;2024-02-15T12:45:30;22.10;;;13.70;;
54171;SDS011;40076;52.354;4.970;2024-02-15T12:48:06;19.45;;;12.98;;
54171;SDS011;40076;52.354;4.970;2024-02-15T12:50:33;18.58;;;11.95;;
54171;SDS011;40076;52.354;4.970;2024-02-15T12:52:59;22.75;;;12.07;;
54171;SDS011;40076;52.354;4.970;2024-02-15T12:55:44;20.65;;;12.23;;
54171;SDS011;40076;52.354;4.970;2024-02-15T12:58:26;18.02;;;11.93;;
54171;SDS011;40076;52.354;4.970;2024-02-15T13:00:54;21.83;;;12.65;;
54171;SDS011;40076;52.354;4.970;2024-02-15T13:03:32;19.63;;;12.38;;
54171;SDS011;40076;52.354;4.970;2024-02-15T13:05:58;22.42;;;12.25;;
54171;SDS011;40076;52.354;4.970;2024-02-15T13:08:23;18.05;;;12.45;;
54171;SDS011;40076;52.354;4.970;2024-02-15T13:13:44;17.38;;;11.55;;
54171;SDS011;40076;52.354;4.970;2024-02-15T13:18:40;18.50;;;12.00;;
54171;SDS011;40076;52.354;4.970;2024-02-15T13:21:06;17.45;;;12.60;;
54171;SDS011;40076;52.354;4.970;2024-02-15T13:23:35;20.10;;;12.10;;
54171;SDS011;40076;52.354;4.970;2024-02-15T13:26:00;17.40;;;12.70;;
54171;SDS011;40076;52.354;4.970;2024-02-15T13:28:29;16.58;;;12.57;;
54171;SDS011;40076;52.354;4.970;2024-02-15T13:31:00;18.27;;;13.70;;
54171;SDS011;40076;52.354;4.970;2024-02-15T13:33:25;16.90;;;13.77;;
54171;SDS011;40076;52.354;4.970;2024-02-15T13:35:56;18.90;;;13.98;;
54171;SDS011;40076;52.354;4.970;2024-02-15T13:38:32;19.60;;;13.80;;
54171;SDS011;40076;52.354;4.970;2024-02-15T13:41:07;15.85;;;12.52;;
54171;SDS011;40076;52.354;4.970;2024-02-15T13:43:36;14.73;;;11.57;;
54171;SDS011;40076;52.354;4.970;2024-02-15T13:46:11;16.08;;;12.40;;
54171;SDS011;40076;52.354;4.970;2024-02-15T13:48:46;16.95;;;12.27;;
54171;SDS011;40076;52.354;4.970;2024-02-15T13:51:14;13.57;;;10.77;;
54171;SDS011;40076;52.354;4.970;2024-02-15T13:53:44;13.63;;;10.15;;
54171;SDS011;40076;52.354;4.970;2024-02-15T13:56:12;16.52;;;10.77;;
54171;SDS011;40076;52.354;4.970;2024-02-15T13:58:50;11.63;;;9.35;;
54171;SDS011;40076;52.354;4.970;2024-02-15T14:01:21;12.77;;;7.80;;
54171;SDS011;40076;52.354;4.970;2024-02-15T14:03:49;9.63;;;7.25;;
54171;SDS011;40076;52.354;4.970;2024-02-15T14:06:16;12.38;;;6.20;;
54171;SDS011;40076;52.354;4.970;2024-02-15T14:08:44;11.65;;;5.80;;
54171;SDS011;40076;52.354;4.970;2024-02-15T14:11:12;11.35;;;5.50;;
54171;SDS011;40076;52.354;4.970;2024-02-15T14:13:47;10.32;;;4.88;;
54171;SDS011;40076;52.354;4.970;2024-02-15T14:16:13;10.10;;;5.05;;
54171;SDS011;40076;52.354;4.970;2024-02-15T14:18:42;9.13;;;4.82;;
54171;SDS011;40076;52.354;4.970;2024-02-15T14:21:09;12.13;;;5.25;;
54171;SDS011;40076;52.354;4.970;2024-02-15T14:23:38;7.75;;;3.60;;
54171;SDS011;40076;52.354;4.970;2024-02-15T14:26:06;8.68;;;4.35;;
54171;SDS011;40076;52.354;4.970;2024-02-15T14:28:32;9.43;;;4.32;;
54171;SDS011;40076;52.354;4.970;2024-02-15T14:31:02;10.90;;;3.65;;
54171;SDS011;40076;52.354;4.970;2024-02-15T14:33:47;10.23;;;3.85;;
54171;SDS011;40076;52.354;4.970;2024-02-15T14:36:14;8.75;;;3.60;;
54171;SDS011;40076;52.354;4.970;2024-02-15T14:38:43;11.13;;;3.70;;
54171;SDS011;40076;52.354;4.970;2024-02-15T14:41:16;8.88;;;3.60;;
54171;SDS011;40076;52.354;4.970;2024-02-15T14:43:45;7.45;;;3.90;;
54171;SDS011;40076;52.354;4.970;2024-02-15T14:46:13;6.82;;;3.78;;
54171;SDS011;40076;52.354;4.970;2024-02-15T14:48:50;7.65;;;3.30;;
54171;SDS011;40076;52.354;4.970;2024-02-15T14:51:15;14.05;;;5.20;;